Time;durP1;ratioP1;P1;durP2;ratioP2;P2;SDS_P1;SDS_P2;PMS_P1;PMS_P2;Temp;Humidity;BMP_temperature;BMP_pressure;BME280_temperature;BME280_humidity;BME280_pressure;Samples;Min_cycle;Max_cycle;Signal;HPM_P1;HPM_P2
2022/04/01 00:01:02;;;;;;;11.37;7.87;;;5.50;99.90;;;;;;4995160;28;20459;-93
2022/04/01 00:03:28;;;;;;;9.70;7.67;;;5.40;99.90;;;;;;4959911;28;20617;-93
2022/04/01 00:05:54;;;;;;;11.37;8.30;;;5.30;99.90;;;;;;4964200;28;20480;-92
2022/04/01 00:08:19;;;;;;;11.60;7.97;;;5.30;99.90;;;;;;4969984;28;20663;-93
2022/04/01 00:10:47;;;;;;;11.10;8.27;;;5.30;99.90;;;;;;4966268;28;20939;-92
2022/04/01 00:13:16;;;;;;;11.00;8.63;;;5.20;99.90;;;;;;4962989;28;20933;-93
2022/04/01 00:15:45;;;;;;;13.77;10.27;;;5.20;99.90;;;;;;4965806;28;20472;-92
2022/04/01 00:18:26;;;;;;;;;;;;;;;;;;;;;
2022/04/01 00:20:58;;;;;;;11.13;8.93;;;5.30;99.90;;;;;;4987934;28;20498;-93
2022/04/01 00:23:24;;;;;;;13.97;10.57;;;5.20;99.90;;;;;;4982435;28;20440;-93
2022/04/01 00:26:43;;;;;;;13.43;9.77;;;5.20;99.90;;;;;;4967481;28;20505;-93
2022/04/01 00:29:18;;;;;;;9.33;7.13;;;5.30;99.90;;;;;;4971730;28;20213;-93
2022/04/01 00:32:09;;;;;;;9.80;7.30;;;5.20;99.90;;;;;;4990202;28;20443;-94
2022/04/01 00:34:49;;;;;;;9.30;7.43;;;5.20;99.90;;;;;;4966616;28;21076;-94
2022/04/01 00:37:41;;;;;;;8.23;7.23;;;5.20;99.90;;;;;;4969697;28;20448;-93
2022/04/01 00:40:27;;;;;;;9.50;7.40;;;5.30;99.90;;;;;;4998505;28;20477;-93
2022/04/01 00:42:52;;;;;;;7.90;6.53;;;5.20;99.90;;;;;;4971197;28;20440;-94
2022/04/01 00:45:20;;;;;;;7.30;5.73;;;5.30;99.90;;;;;;4967657;28;20814;-92
2022/04/01 00:47:46;;;;;;;9.17;6.87;;;5.30;99.90;;;;;;4980354;28;20197;-91
2022/04/01 00:50:12;;;;;;;7.90;6.83;;;5.20;99.90;;;;;;4964967;28;21236;-92
2022/04/01 00:52:37;;;;;;;7.80;6.67;;;5.20;99.90;;;;;;4961708;28;20248;-91
2022/04/01 00:55:08;;;;;;;7.53;6.60;;;5.10;99.90;;;;;;4964486;28;20179;-91
2022/04/01 00:57:37;;;;;;;8.03;7.00;;;5.20;99.90;;;;;;4965052;28;20183;-91
2022/04/01 01:00:07;;;;;;;8.40;6.80;;;5.20;99.90;;;;;;4956460;28;20487;-91
2022/04/01 01:02:34;;;;;;;10.70;6.57;;;5.30;99.90;;;;;;4962267;28;20438;-92
2022/04/01 01:05:00;;;;;;;9.00;7.03;;;5.30;99.90;;;;;;4966257;28;20452;-93
2022/04/01 01:07:26;;;;;;;10.97;7.97;;;5.40;99.90;;;;;;4972862;28;20447;-92
2022/04/01 01:09:52;;;;;;;9.80;7.60;;;5.40;99.90;;;;;;4977500;28;20191;-92
2022/04/01 01:12:19;;;;;;;11.97;10.17;;;5.30;99.90;;;;;;4972378;28;20536;-91
2022/04/01 01:14:44;;;;;;;14.10;9.70;;;5.20;99.90;;;;;;4975990;28;21698;-92
2022/04/01 01:17:14;;;;;;;12.87;10.13;;;5.20;99.90;;;;;;4963212;28;20451;-92
2022/04/01 01:19:41;;;;;;;14.10;11.50;;;5.30;99.90;;;;;;4963616;28;20236;-91
2022/04/01 01:22:08;;;;;;;13.20;10.63;;;5.30;99.90;;;;;;4963132;28;20787;-92
2022/04/01 01:24:44;;;;;;;13.60;10.57;;;5.30;99.90;;;;;;4971973;28;20437;-91
2022/04/01 01:27:10;;;;;;;12.20;10.00;;;5.30;99.90;;;;;;4977339;28;20443;-94
2022/04/01 01:29:41;;;;;;;14.47;11.57;;;5.30;99.90;;;;;;4967258;28;20448;-93
2022/04/01 01:32:14;;;;;;;13.37;11.10;;;5.40;99.90;;;;;;4964679;28;20910;-91
2022/04/01 01:34:40;;;;;;;12.40;10.00;;;5.40;99.90;;;;;;4965422;28;21131;-92
2022/04/01 01:37:11;;;;;;;13.03;10.40;;;5.40;99.90;;;;;;4984224;28;20441;-92
2022/04/01 01:39:38;;;;;;;14.60;10.43;;;5.40;99.90;;;;;;4971578;28;21028;-92
2022/04/01 01:42:03;;;;;;;12.03;9.90;;;5.40;99.90;;;;;;4980940;28;20477;-92
2022/04/01 01:44:31;;;;;;;11.80;9.83;;;5.30;99.90;;;;;;4963504;28;20449;-93
2022/04/01 01:46:57;;;;;;;12.73;10.50;;;5.20;99.90;;;;;;4966679;28;20249;-90
2022/04/01 01:49:23;;;;;;;11.70;10.30;;;5.20;99.90;;;;;;4953642;28;20443;-92
2022/04/01 01:54:44;;;;;;;13.93;10.47;;;5.40;99.90;;;;;;4998393;28;20244;-92
2022/04/01 01:57:21;;;;;;;13.03;10.73;;;5.30;99.90;;;;;;4966288;28;20449;-93
2022/04/01 01:59:47;;;;;;;12.17;10.20;;;5.20;99.90;;;;;;4977077;28;20489;-93
2022/04/01 02:02:21;;;;;;;11.40;9.83;;;5.30;99.90;;;;;;4959398;28;20552;-94
2022/04/01 02:04:47;;;;;;;9.87;7.67;;;5.20;99.90;;;;;;4995037;28;20437;-95
2022/04/01 02:07:16;;;;;;;9.10;8.10;;;5.10;99.90;;;;;;4976686;28;20953;-94
2022/04/01 02:09:53;;;;;;;;;;;;;;;;;;;;;
2022/04/01 02:12:19;;;;;;;8.90;7.93;;;5.10;99.90;;;;;;4986960;28;20437;-94
2022/04/01 02:14:45;;;;;;;10.03;7.90;;;5.10;99.90;;;;;;4971387;28;22398;-94
2022/04/01 02:17:11;;;;;;;11.30;8.80;;;5.00;99.90;;;;;;4974725;28;20192;-94
2022/04/01 02:19:39;;;;;;;11.00;9.47;;;4.90;99.90;;;;;;4960599;28;20217;-93
2022/04/01 02:22:05;;;;;;;10.37;8.33;;;5.00;99.90;;;;;;4973203;28;20461;-95
2022/04/01 02:24:33;;;;;;;13.40;10.30;;;5.10;99.90;;;;;;4969051;28;20460;-93
2022/04/01 02:27:10;;;;;;;12.17;8.87;;;5.10;99.90;;;;;;4977756;28;20438;-94
2022/04/01 02:29:46;;;;;;;9.70;8.43;;;5.10;99.90;;;;;;4966991;28;21879;-94
2022/04/01 02:32:17;;;;;;;9.27;7.63;;;5.10;99.90;;;;;;4959602;28;22746;-93
2022/04/01 02:35:11;;;;;;;10.50;8.53;;;5.10;99.90;;;;;;4975440;28;20781;-95
2022/04/01 02:37:50;;;;;;;8.77;7.70;;;5.00;99.90;;;;;;4970140;28;20446;-93
2022/04/01 02:40:16;;;;;;;10.30;8.30;;;5.00;99.90;;;;;;4981725;28;20532;-93
2022/04/01 02:42:41;;;;;;;12.93;8.43;;;5.00;99.90;;;;;;4977335;28;20227;-93
2022/04/01 02:45:10;;;;;;;10.03;8.70;;;5.00;99.90;;;;;;4979744;28;20281;-93
2022/04/01 02:47:36;;;;;;;12.30;9.50;;;5.10;99.90;;;;;;4977668;28;20634;-93
2022/04/01 02:50:05;;;;;;;11.97;9.67;;;5.20;99.90;;;;;;4957111;28;20456;-92
2022/04/01 02:52:31;;;;;;;13.00;9.97;;;5.20;99.90;;;;;;4977791;28;20285;-92
2022/04/01 02:55:00;;;;;;;11.63;9.63;;;5.20;99.90;;;;;;4974023;28;20543;-93
2022/04/01 02:57:33;;;;;;;11.57;10.33;;;5.10;99.90;;;;;;4971552;28;21088;-92
2022/04/01 03:00:09;;;;;;;11.60;9.30;;;5.20;99.90;;;;;;4995955;28;20238;-94
2022/04/01 03:02:40;;;;;;;11.50;9.50;;;5.20;99.90;;;;;;4961885;28;20900;-92
2022/04/01 03:05:07;;;;;;;13.97;9.90;;;5.10;99.90;;;;;;4957333;28;20448;-92
2022/04/01 03:10:23;;;;;;;10.53;9.17;;;5.00;99.90;;;;;;4978116;28;20531;-92
2022/04/01 03:12:52;;;;;;;16.97;13.47;;;5.00;99.90;;;;;;4955533;28;20454;-93
2022/04/01 03:15:25;;;;;;;21.30;16.60;;;4.90;99.90;;;;;;4964173;28;20450;-91
2022/04/01 03:18:09;;;;;;;14.10;10.87;;;4.90;99.90;;;;;;4962065;28;20549;-91
2022/04/01 03:20:35;;;;;;;13.67;9.97;;;4.90;99.90;;;;;;4955286;28;20441;-93
2022/04/01 03:23:02;;;;;;;13.33;10.30;;;4.80;99.90;;;;;;4967700;28;20436;-93
2022/04/01 03:25:41;;;;;;;13.70;9.97;;;4.70;99.90;;;;;;4975908;28;20444;-92
2022/04/01 03:28:19;;;;;;;14.40;10.47;;;4.60;99.90;;;;;;4952024;28;20446;-91
2022/04/01 03:30:57;;;;;;;13.27;9.87;;;4.70;99.90;;;;;;4990369;28;20563;-92
2022/04/01 03:33:25;;;;;;;14.13;9.63;;;4.70;99.90;;;;;;4993734;28;20942;-92
2022/04/01 03:36:18;;;;;;;12.40;9.43;;;4.80;99.90;;;;;;4955766;28;20524;-92
2022/04/01 03:38:46;;;;;;;17.20;10.37;;;4.80;99.90;;;;;;4969645;28;20445;-91
2022/04/01 03:41:24;;;;;;;14.40;10.80;;;4.80;99.90;;;;;;4982689;28;20439;-92
2022/04/01 03:43:52;;;;;;;12.97;10.07;;;4.80;99.90;;;;;;4956395;28;21046;-92
2022/04/01 03:46:19;;;;;;;14.50;11.27;;;4.80;99.90;;;;;;4960556;28;20475;-92
2022/04/01 03:48:53;;;;;;;20.20;16.07;;;4.70;99.90;;;;;;4996850;28;20448;-92
2022/04/01 03:51:24;;;;;;;13.90;11.10;;;4.80;99.90;;;;;;4956802;28;20452;-92
2022/04/01 03:53:58;;;;;;;14.27;11.57;;;4.70;99.90;;;;;;4969875;28;20533;-92
2022/04/01 03:56:34;;;;;;;14.00;11.03;;;4.70;99.90;;;;;;4984749;28;20424;-92
2022/04/01 03:59:02;;;;;;;14.80;12.00;;;4.60;99.90;;;;;;4972340;28;20519;-92
2022/04/01 04:01:27;;;;;;;14.87;11.40;;;4.60;99.90;;;;;;4993088;28;20472;-92
2022/04/01 04:03:56;;;;;;;14.90;11.50;;;4.50;99.90;;;;;;4961723;28;20486;-92
2022/04/01 04:06:22;;;;;;;15.17;13.07;;;4.70;99.90;;;;;;4973593;28;20192;-93
2022/04/01 04:08:50;;;;;;;14.50;10.63;;;4.70;99.90;;;;;;4974120;28;20564;-92
2022/04/01 04:11:18;;;;;;;14.67;11.03;;;4.70;99.90;;;;;;4987148;28;20460;-92
2022/04/01 04:13:45;;;;;;;14.27;12.20;;;4.80;99.90;;;;;;4956842;28;20461;-93
2022/04/01 04:16:20;;;;;;;14.00;11.63;;;4.80;99.90;;;;;;4955649;28;20433;-92
2022/04/01 04:18:52;;;;;;;14.47;10.53;;;4.80;99.90;;;;;;4955631;28;20445;-93
2022/04/01 04:21:25;;;;;;;13.37;10.53;;;4.90;99.90;;;;;;4955400;28;20449;-92
2022/04/01 04:23:59;;;;;;;15.50;11.67;;;4.90;99.90;;;;;;4992138;28;20477;-92
2022/04/01 04:26:32;;;;;;;12.77;11.47;;;4.90;99.90;;;;;;4964563;28;20443;-92
2022/04/01 04:29:10;;;;;;;11.87;10.10;;;5.00;99.90;;;;;;4955881;28;20450;-92
2022/04/01 04:31:37;;;;;;;12.47;10.70;;;5.00;99.90;;;;;;4954978;28;21358;-91
2022/04/01 04:34:06;;;;;;;12.67;10.50;;;4.80;99.90;;;;;;4964685;28;20451;-90
2022/04/01 04:36:39;;;;;;;12.40;10.10;;;4.70;99.90;;;;;;4954540;28;20484;-90
2022/04/01 04:39:16;;;;;;;11.33;10.03;;;4.70;99.90;;;;;;4948333;28;21572;-90
2022/04/01 04:41:50;;;;;;;11.03;9.83;;;4.70;99.90;;;;;;4979679;28;20445;-91
2022/04/01 04:44:39;;;;;;;11.40;10.30;;;4.70;99.90;;;;;;4964013;28;20476;-90
2022/04/01 04:47:05;;;;;;;12.53;10.30;;;4.70;99.90;;;;;;4962859;28;20483;-91
2022/04/01 04:49:32;;;;;;;10.67;9.43;;;4.70;99.90;;;;;;4973681;28;20571;-91
2022/04/01 04:51:58;;;;;;;11.20;9.87;;;4.60;99.90;;;;;;4966022;28;20436;-92
2022/04/01 04:54:25;;;;;;;12.07;10.80;;;4.70;99.90;;;;;;4957311;28;20445;-91
2022/04/01 04:56:52;;;;;;;11.40;10.00;;;4.60;99.90;;;;;;4973143;28;20455;-91
2022/04/01 04:59:30;;;;;;;13.67;11.93;;;4.70;99.90;;;;;;4994858;28;20444;-92
2022/04/01 05:02:16;;;;;;;12.20;10.20;;;4.60;99.90;;;;;;4975991;28;20763;-91
2022/04/01 05:05:15;;;;;;;11.77;10.57;;;4.60;99.90;;;;;;4998404;28;20483;-92
2022/04/01 05:07:55;;;;;;;10.10;8.90;;;4.50;99.90;;;;;;4960337;28;20478;-92
2022/04/01 05:10:37;;;;;;;14.20;10.67;;;4.40;99.90;;;;;;4972584;28;20532;-91
2022/04/01 05:13:31;;;;;;;12.90;10.33;;;4.30;99.90;;;;;;4945101;28;20435;-90
2022/04/01 05:16:06;;;;;;;10.93;9.83;;;4.30;99.90;;;;;;4952290;28;20443;-91
2022/04/01 05:18:45;;;;;;;11.70;10.17;;;4.30;99.90;;;;;;4984715;28;20435;-91
2022/04/01 05:21:24;;;;;;;12.70;9.80;;;4.40;99.90;;;;;;4995351;28;20928;-90
2022/04/01 05:23:58;;;;;;;8.53;7.00;;;4.20;99.90;;;;;;4962581;28;20551;-92
2022/04/01 05:26:38;;;;;;;8.50;7.60;;;4.20;99.90;;;;;;4974928;28;20468;-93
2022/04/01 05:29:07;;;;;;;9.17;7.77;;;4.30;99.90;;;;;;5010241;28;21059;-93
2022/04/01 05:31:46;;;;;;;9.57;7.80;;;4.20;99.90;;;;;;4969029;28;20477;-93
2022/04/01 05:34:17;;;;;;;9.90;7.40;;;4.10;99.90;;;;;;4964359;28;20483;-92
2022/04/01 05:36:47;;;;;;;8.03;7.07;;;4.10;99.90;;;;;;4994232;28;20456;-90
2022/04/01 05:39:13;;;;;;;8.93;7.60;;;4.10;99.90;;;;;;4960195;28;20447;-92
2022/04/01 05:41:40;;;;;;;7.70;6.90;;;4.10;99.90;;;;;;4961909;28;20452;-91
2022/04/01 05:44:07;;;;;;;7.93;7.10;;;4.20;99.90;;;;;;4959340;28;20433;-94
2022/04/01 05:46:35;;;;;;;7.53;6.83;;;4.30;99.90;;;;;;4966269;28;20526;-91
2022/04/01 05:49:02;;;;;;;6.93;6.23;;;4.30;99.90;;;;;;4961776;28;21751;-88
2022/04/01 05:51:30;;;;;;;7.77;6.50;;;4.30;99.90;;;;;;4975284;28;20506;-87
2022/04/01 05:53:56;;;;;;;7.33;6.60;;;4.30;99.90;;;;;;4976284;28;20445;-89
2022/04/01 05:56:24;;;;;;;10.60;8.40;;;4.20;99.90;;;;;;4968406;28;20436;-90
2022/04/01 05:58:49;;;;;;;9.07;8.00;;;4.20;99.90;;;;;;4952925;28;20531;-89
2022/04/01 06:01:30;;;;;;;7.10;6.40;;;4.30;99.90;;;;;;4979754;28;21416;-88
2022/04/01 06:04:17;;;;;;;7.97;7.17;;;4.20;99.90;;;;;;4977182;28;20193;-89
2022/04/01 06:06:44;;;;;;;7.60;6.77;;;4.10;99.90;;;;;;4974983;28;22177;-90
2022/04/01 06:09:32;;;;;;;7.97;7.17;;;4.10;99.90;;;;;;4956316;28;20460;-89
2022/04/01 06:12:07;;;;;;;7.53;6.63;;;4.10;99.90;;;;;;4957273;28;20455;-89
2022/04/01 06:14:46;;;;;;;5.70;4.80;;;4.10;99.90;;;;;;4952206;28;20460;-89
2022/04/01 06:17:32;;;;;;;7.90;6.27;;;4.10;99.90;;;;;;4979657;28;20445;-89
2022/04/01 06:20:03;;;;;;;5.07;4.60;;;4.10;99.90;;;;;;4975521;28;21023;-89
2022/04/01 06:22:33;;;;;;;6.53;5.27;;;4.10;99.90;;;;;;4978558;28;20977;-90
2022/04/01 06:25:10;;;;;;;7.23;5.90;;;4.20;99.90;;;;;;4965603;28;20821;-89
2022/04/01 06:27:42;;;;;;;8.63;6.90;;;4.20;99.90;;;;;;4971774;28;20551;-90
2022/04/01 06:30:22;;;;;;;11.37;8.47;;;4.10;99.90;;;;;;4958450;28;20470;-89
2022/04/01 06:33:32;;;;;;;11.77;8.90;;;4.10;99.90;;;;;;4959987;28;20437;-90
2022/04/01 06:36:03;;;;;;;16.90;11.93;;;4.20;99.90;;;;;;4931562;28;20453;-87
2022/04/01 06:38:32;;;;;;;9.43;8.40;;;4.20;99.90;;;;;;4960453;28;21036;-89
2022/04/01 06:41:09;;;;;;;7.70;6.37;;;4.20;99.90;;;;;;4965770;28;20944;-89
2022/04/01 06:43:35;;;;;;;8.70;7.80;;;4.30;99.90;;;;;;4948927;28;20533;-88
2022/04/01 06:46:05;;;;;;;11.37;8.33;;;4.10;99.90;;;;;;4956601;28;20467;-87
2022/04/01 06:48:30;;;;;;;8.30;6.93;;;4.10;99.90;;;;;;4948006;28;20824;-87
2022/04/01 06:50:57;;;;;;;10.50;6.60;;;4.10;99.90;;;;;;4970443;28;20967;-87
2022/04/01 06:53:23;;;;;;;8.03;6.70;;;4.10;99.90;;;;;;4962557;28;20957;-87
2022/04/01 06:55:49;;;;;;;8.80;7.07;;;4.00;99.90;;;;;;4946357;28;20458;-86
2022/04/01 06:59:06;;;;;;;8.27;7.03;;;3.90;99.90;;;;;;4973263;28;20198;-87
2022/04/01 07:01:34;;;;;;;9.63;7.17;;;3.90;99.90;;;;;;4977786;28;20882;-89
2022/04/01 07:04:22;;;;;;;8.03;6.10;;;3.60;99.90;;;;;;4967873;28;20481;-90
2022/04/01 07:06:48;;;;;;;7.50;6.10;;;3.70;99.90;;;;;;4968653;28;20523;-90
2022/04/01 07:09:13;;;;;;;9.73;7.20;;;3.80;99.90;;;;;;4953108;28;20514;-89
2022/04/01 07:11:40;;;;;;;10.60;8.07;;;3.70;99.90;;;;;;4965400;28;20350;-87
2022/04/01 07:14:06;;;;;;;7.83;6.20;;;3.60;99.90;;;;;;4976623;28;20187;-88
2022/04/01 07:16:31;;;;;;;9.70;7.20;;;3.70;99.90;;;;;;4960743;28;20804;-89
2022/04/01 07:19:01;;;;;;;10.10;7.10;;;3.60;99.90;;;;;;4959236;28;20796;-90
2022/04/01 07:21:27;;;;;;;9.60;6.77;;;3.60;99.90;;;;;;4960467;28;20519;-93
2022/04/01 07:23:53;;;;;;;10.27;7.40;;;3.50;99.90;;;;;;4987432;28;20448;-92
2022/04/01 07:26:19;;;;;;;12.03;8.53;;;3.60;99.90;;;;;;4977914;28;20444;-92
2022/04/01 07:28:44;;;;;;;9.47;7.30;;;3.70;99.90;;;;;;4960378;28;20554;-93
2022/04/01 07:33:54;;;;;;;10.70;8.30;;;3.80;99.90;;;;;;4977293;28;20249;-91
2022/04/01 07:36:20;;;;;;;13.97;9.87;;;3.80;99.90;;;;;;4960596;28;21023;-92
2022/04/01 07:39:02;;;;;;;11.03;7.83;;;3.70;99.90;;;;;;4980221;28;20199;-91
2022/04/01 07:41:35;;;;;;;10.87;7.70;;;3.80;99.90;;;;;;4961836;28;20453;-93
2022/04/01 07:44:03;;;;;;;10.33;7.03;;;3.80;99.90;;;;;;4959329;28;20473;-92
2022/04/01 07:46:30;;;;;;;11.03;7.40;;;3.90;99.90;;;;;;4960777;28;20479;-92
2022/04/01 07:48:56;;;;;;;8.10;6.27;;;3.80;99.90;;;;;;4961962;28;20496;-93
2022/04/01 07:51:21;;;;;;;9.73;6.70;;;3.90;99.90;;;;;;4971008;28;20969;-92
2022/04/01 07:53:47;;;;;;;7.47;6.50;;;3.70;99.90;;;;;;4992286;28;20199;-96
2022/04/01 07:56:15;;;;;;;10.00;7.40;;;3.80;99.90;;;;;;4998813;28;20186;-96
2022/04/01 07:58:41;;;;;;;10.13;7.87;;;3.70;99.90;;;;;;5017798;28;20194;-94
2022/04/01 08:01:06;;;;;;;9.10;7.03;;;3.60;99.90;;;;;;4978652;28;20478;-96
2022/04/01 08:03:37;;;;;;;10.57;7.40;;;3.60;99.90;;;;;;4971547;28;20545;-96
2022/04/01 08:06:08;;;;;;;9.30;7.70;;;3.70;99.90;;;;;;5002560;28;20201;-96
2022/04/01 08:08:35;;;;;;;9.37;7.30;;;3.70;99.90;;;;;;4996855;28;20433;-96
2022/04/01 08:11:08;;;;;;;10.13;7.47;;;3.80;99.90;;;;;;5041622;23;20468;-96
2022/04/01 08:13:51;;;;;;;7.97;6.50;;;3.80;99.90;;;;;;5012272;28;20455;-95
2022/04/01 08:16:29;;;;;;;;;;;;;;;;;;;;;
2022/04/01 08:19:07;;;;;;;8.13;6.43;;;3.70;99.90;;;;;;4995978;28;20493;-95
2022/04/01 08:21:32;;;;;;;10.40;7.53;;;3.70;99.90;;;;;;5016473;28;20973;-95
2022/04/01 08:23:59;;;;;;;8.80;7.20;;;3.80;99.90;;;;;;5002342;28;20421;-96
2022/04/01 08:26:26;;;;;;;10.97;8.83;;;3.70;99.90;;;;;;5009929;28;20193;-96
2022/04/01 08:28:52;;;;;;;10.67;7.90;;;3.80;99.90;;;;;;4991717;28;20449;-95
2022/04/01 08:31:21;;;;;;;8.80;7.63;;;3.80;99.90;;;;;;4989128;28;20477;-95
2022/04/01 08:33:50;;;;;;;9.50;7.87;;;4.00;99.90;;;;;;4984928;28;21163;-94
2022/04/01 08:36:51;;;;;;;;;;;;;;;;;;;;;
2022/04/01 08:39:28;;;;;;;9.47;7.13;;;3.80;99.90;;;;;;4990422;28;20439;-96
2022/04/01 08:41:54;;;;;;;10.10;8.03;;;3.70;99.90;;;;;;5005614;28;20453;-96
2022/04/01 08:44:23;;;;;;;12.10;9.03;;;3.70;99.90;;;;;;5001618;28;21139;-95
2022/04/01 08:46:49;;;;;;;10.20;8.23;;;3.80;99.90;;;;;;4996763;28;20191;-95
2022/04/01 08:49:17;;;;;;;9.37;7.23;;;3.90;99.90;;;;;;5002817;28;20465;-94
2022/04/01 08:51:46;;;;;;;10.17;8.30;;;3.90;99.90;;;;;;5002880;28;20505;-95
2022/04/01 08:54:11;;;;;;;10.53;8.77;;;3.80;99.90;;;;;;5012419;28;20944;-95
2022/04/01 08:56:39;;;;;;;8.23;7.27;;;3.90;99.90;;;;;;4995705;28;20445;-96
2022/04/01 08:59:10;;;;;;;10.50;8.47;;;3.90;99.90;;;;;;5001121;28;20275;-96
2022/04/01 09:01:43;;;;;;;11.60;8.40;;;3.90;99.90;;;;;;5003829;28;20587;-96
2022/04/01 09:04:22;;;;;;;11.43;8.50;;;3.80;99.90;;;;;;4993043;28;20455;-96
2022/04/01 09:06:50;;;;;;;10.17;8.00;;;3.90;99.90;;;;;;5004740;28;20452;-95
2022/04/01 09:09:30;;;;;;;11.17;8.07;;;3.90;99.90;;;;;;5004855;28;20444;-96
2022/04/01 09:12:10;;;;;;;10.23;8.57;;;3.70;99.90;;;;;;4985528;28;20532;-95
2022/04/01 09:14:36;;;;;;;11.27;8.37;;;3.90;99.90;;;;;;4986490;28;20468;-91
2022/04/01 09:17:06;;;;;;;9.60;8.10;;;3.90;99.90;;;;;;4989848;28;20429;-96
2022/04/01 09:19:46;;;;;;;;;;;;;;;;;;;;;
2022/04/01 09:22:42;;;;;;;13.50;9.13;;;3.80;99.90;;;;;;5005604;28;20517;-96
2022/04/01 09:25:18;;;;;;;9.13;7.93;;;3.80;99.90;;;;;;5020218;28;20437;-91
2022/04/01 09:27:53;;;;;;;10.10;8.20;;;3.70;99.90;;;;;;5012056;28;21518;-96
2022/04/01 09:30:21;;;;;;;10.50;8.77;;;3.70;99.90;;;;;;5011185;28;20491;-96
2022/04/01 09:32:55;;;;;;;10.30;8.90;;;3.60;99.90;;;;;;5010579;28;20514;-95
2022/04/01 09:35:24;;;;;;;11.30;9.00;;;3.70;99.90;;;;;;5015138;28;20448;-94
2022/04/01 09:37:59;;;;;;;12.27;9.53;;;3.80;99.90;;;;;;5006645;28;20439;-94
2022/04/01 09:40:27;;;;;;;11.50;9.10;;;3.80;99.90;;;;;;5013334;28;20444;-96
2022/04/01 09:43:08;;;;;;;10.20;8.47;;;3.90;99.90;;;;;;5006890;28;20444;-95
2022/04/01 09:45:37;;;;;;;10.70;8.37;;;3.80;99.90;;;;;;5023561;28;20443;-96
2022/04/01 09:48:41;;;;;;;9.43;8.10;;;3.80;99.90;;;;;;5021012;28;20438;-96
2022/04/01 09:51:10;;;;;;;9.10;7.07;;;3.70;99.90;;;;;;5017730;28;20543;-96
2022/04/01 09:53:35;;;;;;;8.90;7.47;;;3.80;99.90;;;;;;5016347;28;20448;-96
2022/04/01 09:56:07;;;;;;;8.07;6.97;;;3.80;99.90;;;;;;5017448;28;20450;-96
2022/04/01 09:58:38;;;;;;;11.97;8.47;;;3.80;99.90;;;;;;5014318;28;20184;-96
2022/04/01 10:01:08;;;;;;;8.93;7.20;;;3.80;99.90;;;;;;5013275;28;20447;-96
2022/04/01 10:04:01;;;;;;;7.63;6.80;;;3.80;99.90;;;;;;4998869;28;20885;-91
2022/04/01 10:06:48;;;;;;;6.90;6.17;;;3.80;99.90;;;;;;4976050;28;20856;-92
2022/04/01 10:09:30;;;;;;;5.63;4.83;;;3.90;99.90;;;;;;4992965;28;20448;-91
2022/04/01 10:11:59;;;;;;;6.40;5.07;;;3.70;99.90;;;;;;4982220;28;20462;-93
2022/04/01 10:14:26;;;;;;;6.73;5.43;;;3.60;99.90;;;;;;4979499;28;22212;-91
2022/04/01 10:17:01;;;;;;;5.83;5.00;;;3.60;99.90;;;;;;4991044;28;21029;-90
2022/04/01 10:19:34;;;;;;;5.60;5.10;;;3.60;99.90;;;;;;4969490;28;20443;-92
2022/04/01 10:22:04;;;;;;;5.30;4.30;;;3.70;99.90;;;;;;4975671;28;20536;-88
2022/04/01 10:24:44;;;;;;;7.77;6.23;;;3.80;99.90;;;;;;5011059;28;20991;-93
2022/04/01 10:27:23;;;;;;;5.50;4.83;;;3.80;99.90;;;;;;4991363;28;20183;-92
2022/04/01 10:29:56;;;;;;;6.33;5.30;;;3.90;99.90;;;;;;4993009;28;20468;-96
2022/04/01 10:35:10;;;;;;;6.30;5.33;;;4.10;99.90;;;;;;4960139;28;20594;-95
2022/04/01 10:38:06;;;;;;;4.70;4.20;;;4.10;99.90;;;;;;4958959;28;20449;-93
2022/04/01 10:40:39;;;;;;;6.50;5.03;;;4.10;99.90;;;;;;4960497;28;20443;-93
2022/04/01 10:43:26;;;;;;;4.60;4.20;;;4.00;99.90;;;;;;4962436;28;20508;-93
2022/04/01 10:46:08;;;;;;;5.20;4.70;;;4.10;99.90;;;;;;4983338;28;20438;-92
2022/04/01 10:51:37;;;;;;;4.80;4.40;;;4.00;99.90;;;;;;4966349;28;20562;-94
2022/04/01 10:54:12;;;;;;;6.53;4.50;;;3.80;99.90;;;;;;4978212;28;20438;-93
2022/04/01 10:57:00;;;;;;;4.57;4.17;;;3.90;99.90;;;;;;4985353;28;20450;-93
2022/04/01 10:59:28;;;;;;;5.37;4.87;;;3.90;99.90;;;;;;4967170;28;20953;-92
2022/04/01 11:01:57;;;;;;;4.80;4.40;;;3.70;99.90;;;;;;4970966;28;20907;-91
2022/04/01 11:04:25;;;;;;;6.80;6.10;;;3.70;99.90;;;;;;4960691;28;20538;-92
2022/04/01 11:06:58;;;;;;;6.87;6.27;;;3.80;99.90;;;;;;4969765;28;20473;-93
2022/04/01 11:09:50;;;;;;;5.27;4.80;;;3.80;99.90;;;;;;4968498;28;20470;-91
2022/04/01 11:12:16;;;;;;;4.67;4.30;;;4.00;99.90;;;;;;4966293;28;20542;-92
2022/04/01 11:14:54;;;;;;;5.40;4.90;;;4.00;99.90;;;;;;4964828;28;21006;-92
2022/04/01 11:17:21;;;;;;;4.27;3.97;;;4.10;99.90;;;;;;4977018;28;20265;-91
2022/04/01 11:20:14;;;;;;;4.90;4.50;;;4.00;99.90;;;;;;4952888;28;20956;-92
2022/04/01 11:22:52;;;;;;;5.93;5.43;;;3.90;99.90;;;;;;4974282;28;20933;-92
2022/04/01 11:25:32;;;;;;;4.90;4.50;;;4.20;99.90;;;;;;4976477;28;20807;-94
2022/04/01 11:28:14;;;;;;;4.17;3.87;;;4.40;99.90;;;;;;4960295;28;20449;-91
2022/04/01 11:30:44;;;;;;;7.87;7.17;;;4.60;99.90;;;;;;4956304;28;20469;-92
2022/04/01 11:33:15;;;;;;;6.30;5.80;;;4.50;99.90;;;;;;4966874;28;20482;-88
2022/04/01 11:35:44;;;;;;;6.97;5.73;;;4.50;99.90;;;;;;4953157;28;20451;-90
2022/04/01 11:38:16;;;;;;;4.97;4.57;;;4.30;99.90;;;;;;4952826;28;20438;-85
2022/04/01 11:40:42;;;;;;;5.33;4.93;;;4.40;99.90;;;;;;4958983;28;23487;-87
2022/04/01 11:43:11;;;;;;;6.00;5.50;;;4.40;99.90;;;;;;4951525;28;20437;-88
2022/04/01 11:45:41;;;;;;;4.73;4.33;;;4.10;99.90;;;;;;4966242;28;20971;-85
2022/04/01 11:48:22;;;;;;;5.70;5.20;;;3.90;99.90;;;;;;4948610;28;20451;-87
2022/04/01 11:50:54;;;;;;;4.97;4.57;;;3.90;99.90;;;;;;4941469;28;20533;-85
2022/04/01 11:53:24;;;;;;;4.93;4.53;;;4.00;99.90;;;;;;4972761;28;20434;-86
2022/04/01 11:55:50;;;;;;;4.67;4.30;;;4.30;99.90;;;;;;4966279;28;20588;-88
2022/04/01 11:58:19;;;;;;;4.90;4.50;;;4.40;99.90;;;;;;4968564;28;21028;-88
2022/04/01 12:00:45;;;;;;;3.27;3.03;;;4.50;99.90;;;;;;4947320;28;20981;-88
2022/04/01 12:03:11;;;;;;;3.80;3.50;;;4.60;99.90;;;;;;4946576;28;20580;-87
2022/04/01 12:05:39;;;;;;;4.97;4.57;;;4.30;99.90;;;;;;4948757;28;21262;-87
2022/04/01 12:10:59;;;;;;;3.80;3.50;;;4.60;99.90;;;;;;4947704;28;20588;-87
2022/04/01 12:13:28;;;;;;;3.87;3.57;;;4.90;99.90;;;;;;4946655;28;20441;-88
2022/04/01 12:15:58;;;;;;;4.60;4.20;;;4.80;99.90;;;;;;4949451;28;20458;-88
2022/04/01 12:18:28;;;;;;;4.20;3.90;;;5.00;99.90;;;;;;4943766;28;20444;-86
2022/04/01 12:20:57;;;;;;;4.13;3.83;;;4.70;99.90;;;;;;4946341;28;20456;-87
2022/04/01 12:23:28;;;;;;;3.70;3.40;;;4.70;99.90;;;;;;4967800;28;20441;-87
2022/04/01 12:25:57;;;;;;;3.97;3.63;;;4.90;99.90;;;;;;4946421;28;20457;-87
2022/04/01 12:28:37;;;;;;;4.00;3.70;;;4.80;99.90;;;;;;4949596;28;20474;-86
2022/04/01 12:31:25;;;;;;;5.70;5.00;;;4.60;99.90;;;;;;4969891;28;20504;-92
2022/04/01 12:33:53;;;;;;;4.70;4.30;;;4.70;99.90;;;;;;4947653;28;20453;-87
2022/04/01 12:36:39;;;;;;;5.70;5.20;;;4.80;99.90;;;;;;4958756;28;20832;-88
2022/04/01 12:39:11;;;;;;;4.70;4.30;;;4.70;99.90;;;;;;4957035;28;21650;-86
2022/04/01 12:42:10;;;;;;;4.90;4.50;;;4.50;99.90;;;;;;4953860;28;20444;-86
2022/04/01 12:44:45;;;;;;;5.20;4.80;;;4.80;99.90;;;;;;4899757;28;20488;-86
2022/04/01 12:47:12;;;;;;;4.43;4.03;;;5.10;99.90;;;;;;4959293;28;20452;-87
2022/04/01 12:49:41;;;;;;;4.63;4.30;;;5.10;99.90;;;;;;4951452;28;20502;-86
2022/04/01 12:52:14;;;;;;;5.53;5.03;;;4.70;99.90;;;;;;4957218;28;21733;-87
2022/04/01 12:54:47;;;;;;;4.70;4.33;;;4.40;99.90;;;;;;4955722;28;20441;-86
2022/04/01 12:57:13;;;;;;;5.40;5.00;;;4.40;99.90;;;;;;4945049;28;20456;-86
2022/04/01 12:59:48;;;;;;;4.43;4.13;;;4.60;99.90;;;;;;4938826;28;20446;-85
2022/04/01 13:02:23;;;;;;;6.27;5.67;;;4.80;99.90;;;;;;4952052;28;20528;-84
2022/04/01 13:04:58;;;;;;;6.87;6.27;;;4.70;99.90;;;;;;4945439;28;20450;-85
2022/04/01 13:07:35;;;;;;;6.67;6.13;;;4.60;99.90;;;;;;4969076;28;20445;-85
2022/04/01 13:10:14;;;;;;;7.47;6.77;;;4.40;99.90;;;;;;4947501;28;20504;-84
2022/04/01 13:12:44;;;;;;;11.30;9.37;;;4.50;99.90;;;;;;4943134;28;20792;-87
2022/04/01 13:15:17;;;;;;;6.97;6.37;;;4.40;99.90;;;;;;4954600;28;21395;-85
2022/04/01 13:17:52;;;;;;;5.23;4.80;;;4.40;99.90;;;;;;4973791;28;20468;-86
2022/04/01 13:20:32;;;;;;;6.17;5.57;;;4.40;99.90;;;;;;4943368;28;20531;-87
2022/04/01 13:23:03;;;;;;;8.40;7.60;;;4.20;99.90;;;;;;4973704;28;20865;-87
2022/04/01 13:25:31;;;;;;;6.50;5.90;;;4.10;99.90;;;;;;4949636;28;21846;-86
2022/04/01 13:27:57;;;;;;;7.53;6.77;;;4.20;99.90;;;;;;4950131;28;20453;-86
2022/04/01 13:30:24;;;;;;;8.40;7.27;;;4.30;99.90;;;;;;4958383;28;20424;-87
2022/04/01 13:32:50;;;;;;;6.40;5.80;;;4.40;99.90;;;;;;4951588;28;20457;-86
2022/04/01 13:35:18;;;;;;;5.83;5.33;;;4.40;99.90;;;;;;4947454;28;20457;-86
2022/04/01 13:37:44;;;;;;;5.00;4.60;;;4.20;99.90;;;;;;4951802;28;21015;-87
2022/04/01 13:40:13;;;;;;;7.87;7.10;;;4.00;99.90;;;;;;4944783;28;20479;-87